createdAt,value
2023-02-08T00:01:30.979Z,12.93
2023-02-08T00:03:59.200Z,12.57
2023-02-08T00:06:27.397Z,11.70
2023-02-08T00:08:55.588Z,11.53
2023-02-08T00:11:23.939Z,11.83
2023-02-08T00:13:53.607Z,12.37
2023-02-08T00:16:21.927Z,9.83
2023-02-08T00:18:53.676Z,12.57
2023-02-08T00:21:29.704Z,12.87
2023-02-08T00:23:58.121Z,10.97
2023-02-08T00:26:26.460Z,16.03
2023-02-08T00:28:56.381Z,10.23
2023-02-08T00:31:24.851Z,15.70
2023-02-08T00:33:53.114Z,16.73
2023-02-08T00:36:21.411Z,11.10
2023-02-08T00:38:49.673Z,10.10
2023-02-08T00:41:17.878Z,11.90
2023-02-08T00:43:46.140Z,16.67
2023-02-08T00:46:15.891Z,12.17
2023-02-08T00:48:44.229Z,12.93
2023-02-08T00:51:15.421Z,15.47
2023-02-08T00:53:50.759Z,11.77
2023-02-08T00:56:19.214Z,15.10
2023-02-08T00:58:47.849Z,29.10
2023-02-08T01:01:17.639Z,12.90
2023-02-08T01:03:46.306Z,15.50
2023-02-08T01:06:16.538Z,13.10
2023-02-08T01:08:49.296Z,17.47
2023-02-08T01:11:20.141Z,11.43
2023-02-08T01:13:48.687Z,13.60
2023-02-08T01:16:20.953Z,16.03
2023-02-08T01:18:51.333Z,15.63
2023-02-08T01:21:22.639Z,11.97
2023-02-08T01:24:00.280Z,12.50
2023-02-08T01:26:29.220Z,13.70
2023-02-08T01:28:58.139Z,13.80
2023-02-08T01:31:30.361Z,11.80
2023-02-08T01:33:59.631Z,14.03
2023-02-08T01:36:29.194Z,14.00
2023-02-08T01:38:57.418Z,13.67
2023-02-08T01:41:33.586Z,21.63
2023-02-08T01:44:08.728Z,16.57
2023-02-08T01:46:40.550Z,13.70
2023-02-08T01:49:17.748Z,14.30
2023-02-08T01:51:51.659Z,12.17
2023-02-08T01:54:23.345Z,13.10
2023-02-08T01:56:52.238Z,13.53
2023-02-08T01:59:32.427Z,15.90
2023-02-08T02:02:04.145Z,15.13
2023-02-08T02:04:32.703Z,14.73
2023-02-08T02:07:02.135Z,13.13
2023-02-08T02:09:35.886Z,16.90
2023-02-08T02:12:06.173Z,17.63
2023-02-08T02:14:45.014Z,19.47
2023-02-08T02:17:16.695Z,13.13
2023-02-08T02:19:56.693Z,16.90
2023-02-08T02:22:55.474Z,17.50
2023-02-08T02:25:45.729Z,16.67
2023-02-08T02:28:36.018Z,16.70
2023-02-08T02:31:44.427Z,21.13
2023-02-08T02:34:25.527Z,15.43
2023-02-08T02:37:04.030Z,18.73
2023-02-08T02:39:55.519Z,18.80
2023-02-08T02:42:47.318Z,17.23
2023-02-08T02:45:28.521Z,18.43
2023-02-08T02:48:06.786Z,18.17
2023-02-08T02:50:49.162Z,19.20
2023-02-08T02:53:21.984Z,14.63
2023-02-08T02:55:59.727Z,18.17
2023-02-08T02:58:32.400Z,17.40
2023-02-08T03:01:02.046Z,18.50
2023-02-08T03:03:34.369Z,16.30
2023-02-08T03:06:08.881Z,26.20
2023-02-08T03:09:01.898Z,16.37
2023-02-08T03:11:35.496Z,19.33
2023-02-08T03:14:22.075Z,21.37
2023-02-08T03:17:18.449Z,16.57
2023-02-08T03:19:55.174Z,16.23
2023-02-08T03:22:35.055Z,18.80
2023-02-08T03:25:14.112Z,19.57
2023-02-08T03:27:56.067Z,20.17
2023-02-08T03:30:39.547Z,15.00
2023-02-08T03:33:12.581Z,15.27
2023-02-08T03:35:46.499Z,17.27
2023-02-08T03:38:24.916Z,15.90
2023-02-08T03:40:55.046Z,17.70
2023-02-08T03:43:27.242Z,15.07
2023-02-08T03:46:06.335Z,28.80
2023-02-08T03:48:37.958Z,14.07
2023-02-08T03:51:07.361Z,15.17
2023-02-08T03:53:40.655Z,16.17
2023-02-08T03:56:16.755Z,18.07
2023-02-08T03:58:50.912Z,27.10
2023-02-08T04:01:31.161Z,22.67
2023-02-08T04:04:02.970Z,15.90
2023-02-08T04:06:35.698Z,25.20
2023-02-08T04:09:07.322Z,16.43
2023-02-08T04:11:35.590Z,14.63
2023-02-08T04:14:03.873Z,19.60
2023-02-08T04:16:32.214Z,14.77
2023-02-08T04:19:00.541Z,16.00
2023-02-08T04:21:28.812Z,20.70
2023-02-08T04:23:57.096Z,22.37
2023-02-08T04:26:26.836Z,17.47
2023-02-08T04:28:54.983Z,14.73
2023-02-08T04:31:23.517Z,20.43
2023-02-08T04:33:52.189Z,18.40
2023-02-08T04:36:20.556Z,22.03
2023-02-08T04:38:48.909Z,21.13
2023-02-08T04:41:17.100Z,17.30
2023-02-08T04:43:46.965Z,14.43
2023-02-08T04:46:15.274Z,20.20
2023-02-08T04:48:43.526Z,19.70
2023-02-08T04:51:11.821Z,15.67
2023-02-08T04:53:40.108Z,18.00
2023-02-08T04:56:13.846Z,22.23
2023-02-08T04:58:48.496Z,24.73
2023-02-08T05:01:18.308Z,17.20
2023-02-08T05:03:46.677Z,24.60
2023-02-08T05:06:14.951Z,18.10
2023-02-08T05:08:43.167Z,16.53
2023-02-08T05:11:11.368Z,16.43
2023-02-08T05:13:39.584Z,15.73
2023-02-08T05:16:08.399Z,22.30
2023-02-08T05:18:38.240Z,14.00
2023-02-08T05:21:06.790Z,19.43
2023-02-08T05:23:35.125Z,15.77
2023-02-08T05:26:17.851Z,19.90
2023-02-08T05:28:46.640Z,18.90
2023-02-08T05:31:18.233Z,17.10
2023-02-08T05:33:48.118Z,15.10
2023-02-08T05:36:16.579Z,24.70
2023-02-08T05:38:44.950Z,20.83
2023-02-08T05:41:13.346Z,14.33
2023-02-08T05:43:41.861Z,15.37
2023-02-08T05:46:10.019Z,28.93
2023-02-08T05:48:38.759Z,17.57
2023-02-08T05:51:08.562Z,19.77
2023-02-08T05:53:36.969Z,14.57
2023-02-08T05:56:05.258Z,21.00
2023-02-08T05:58:33.526Z,15.60
2023-02-08T06:01:02.043Z,14.13
2023-02-08T06:03:30.313Z,14.73
2023-02-08T06:06:03.448Z,17.90
2023-02-08T06:08:41.413Z,17.20
2023-02-08T06:11:09.870Z,18.53
2023-02-08T06:13:39.092Z,16.50
2023-02-08T06:16:08.235Z,21.73
2023-02-08T06:18:36.522Z,18.90
2023-02-08T06:21:05.334Z,19.00
2023-02-08T06:23:35.061Z,19.13
2023-02-08T06:26:03.846Z,17.37
2023-02-08T06:28:32.160Z,17.83
2023-02-08T06:31:00.582Z,26.97
2023-02-08T06:33:28.753Z,24.53
2023-02-08T06:35:57.040Z,17.87
2023-02-08T06:38:25.465Z,17.77
2023-02-08T06:40:55.054Z,18.57
2023-02-08T06:43:23.585Z,18.67
2023-02-08T06:45:51.897Z,20.63
2023-02-08T06:48:20.390Z,19.93
2023-02-08T06:50:48.626Z,21.87
2023-02-08T06:53:16.860Z,24.47
2023-02-08T06:55:49.438Z,20.33
2023-02-08T06:58:19.762Z,22.63
2023-02-08T07:00:48.415Z,19.67
2023-02-08T07:03:17.733Z,21.50
2023-02-08T07:06:03.499Z,20.30
2023-02-08T07:08:32.986Z,15.73
2023-02-08T07:11:01.325Z,19.77
2023-02-08T07:13:30.975Z,18.77
2023-02-08T07:15:59.168Z,22.10
2023-02-08T07:18:27.535Z,21.40
2023-02-08T07:20:55.798Z,33.90
2023-02-08T07:23:24.154Z,17.83
2023-02-08T07:25:59.843Z,18.90
2023-02-08T07:28:28.558Z,21.17
2023-02-08T07:30:58.706Z,16.57
2023-02-08T07:33:27.352Z,23.20
2023-02-08T07:35:55.579Z,26.37
2023-02-08T07:38:23.830Z,26.10
2023-02-08T07:40:52.039Z,27.07
2023-02-08T07:43:20.262Z,25.47
2023-02-08T07:45:48.558Z,21.83
2023-02-08T07:48:18.430Z,23.70
2023-02-08T07:50:46.660Z,21.23
2023-02-08T07:53:14.860Z,21.07
2023-02-08T07:55:43.151Z,24.27
2023-02-08T07:58:11.366Z,17.37
2023-02-08T08:00:39.904Z,22.53
2023-02-08T08:03:08.245Z,18.00
2023-02-08T08:05:53.534Z,16.40
2023-02-08T08:08:23.051Z,20.83
2023-02-08T08:10:51.432Z,20.13
2023-02-08T08:13:19.720Z,18.57
2023-02-08T08:15:48.721Z,20.20
2023-02-08T08:18:17.285Z,24.50
2023-02-08T08:20:45.589Z,22.77
2023-02-08T08:23:16.511Z,23.80
2023-02-08T08:25:44.722Z,19.87
2023-02-08T08:28:13.091Z,16.50
2023-02-08T08:30:45.126Z,20.03
2023-02-08T08:33:14.114Z,21.20
2023-02-08T08:35:43.999Z,23.47
2023-02-08T08:38:12.422Z,18.17
2023-02-08T08:40:42.482Z,18.27
2023-02-08T08:43:11.037Z,16.50
2023-02-08T08:45:39.192Z,23.60
2023-02-08T08:48:07.754Z,18.27
2023-02-08T08:50:35.858Z,20.53
2023-02-08T08:53:04.358Z,18.77
2023-02-08T08:55:32.735Z,23.60
2023-02-08T08:58:02.466Z,16.87
2023-02-08T09:00:30.661Z,24.57
2023-02-08T09:02:58.887Z,21.47
2023-02-08T09:05:27.148Z,30.47
2023-02-08T09:07:55.395Z,20.93
2023-02-08T09:10:23.649Z,20.03
2023-02-08T09:12:53.117Z,22.53
2023-02-08T09:15:22.858Z,22.63
2023-02-08T09:17:51.162Z,21.07
2023-02-08T09:20:19.531Z,16.83
2023-02-08T09:22:47.788Z,18.03
2023-02-08T09:25:16.131Z,24.10
2023-02-08T09:27:44.379Z,22.27
2023-02-08T09:30:13.204Z,29.63
2023-02-08T09:32:42.836Z,23.50
2023-02-08T09:35:13.491Z,22.33
2023-02-08T09:37:41.670Z,24.17
2023-02-08T09:40:22.905Z,24.40
2023-02-08T09:43:00.518Z,41.63
2023-02-08T09:45:51.087Z,33.60
2023-02-08T09:48:32.724Z,20.77
2023-02-08T09:51:08.899Z,24.50
2023-02-08T09:53:41.229Z,23.77
2023-02-08T09:56:14.643Z,29.80
2023-02-08T09:58:45.969Z,20.97
2023-02-08T10:01:20.436Z,23.60
2023-02-08T10:03:53.171Z,31.60
2023-02-08T10:06:22.245Z,18.57
2023-02-08T10:08:52.435Z,21.93
2023-02-08T10:11:39.703Z,22.17
2023-02-08T10:14:28.644Z,18.40
2023-02-08T10:17:06.659Z,16.80
2023-02-08T10:19:50.559Z,22.10
2023-02-08T10:22:28.542Z,14.83
2023-02-08T10:25:45.279Z,21.60
2023-02-08T10:28:34.403Z,27.57
2023-02-08T10:31:13.963Z,21.73
2023-02-08T10:33:51.374Z,28.10
2023-02-08T10:36:23.692Z,25.57
2023-02-08T10:38:54.570Z,24.10
2023-02-08T10:41:26.271Z,24.50
2023-02-08T10:44:02.433Z,22.90
2023-02-08T10:46:36.946Z,25.70
2023-02-08T10:49:12.550Z,31.73
2023-02-08T10:51:42.492Z,28.92
2023-02-08T10:54:14.376Z,20.67
2023-02-08T10:56:49.802Z,17.83
2023-02-08T10:59:23.758Z,29.30
2023-02-08T11:01:52.621Z,20.00
2023-02-08T11:04:21.361Z,19.85
2023-02-08T11:07:21.433Z,29.10
2023-02-08T11:09:49.689Z,20.40
2023-02-08T11:12:21.942Z,30.45
2023-02-08T11:14:52.613Z,26.10
2023-02-08T11:17:29.871Z,20.20
2023-02-08T11:19:59.750Z,27.85
2023-02-08T11:22:32.267Z,23.92
2023-02-08T11:25:02.958Z,21.30
2023-02-08T11:27:33.821Z,24.90
2023-02-08T11:30:23.442Z,23.75
2023-02-08T11:33:18.539Z,23.38
2023-02-08T11:36:05.491Z,15.88
2023-02-08T11:38:36.149Z,14.63
2023-02-08T11:41:15.721Z,13.38
2023-02-08T11:43:45.710Z,12.55
2023-02-08T11:46:26.767Z,20.35
2023-02-08T11:49:01.370Z,13.93
2023-02-08T11:51:32.407Z,21.05
2023-02-08T11:54:01.621Z,13.38
2023-02-08T11:56:35.423Z,21.95
2023-02-08T11:59:29.245Z,16.42
2023-02-08T12:01:57.570Z,14.60
2023-02-08T12:04:27.359Z,16.80
2023-02-08T12:07:13.497Z,15.93
2023-02-08T12:10:04.220Z,18.15
2023-02-08T12:12:43.239Z,14.85
2023-02-08T12:15:24.148Z,14.95
2023-02-08T12:18:17.589Z,14.50
2023-02-08T12:20:48.185Z,17.05
2023-02-08T12:23:42.706Z,15.07
2023-02-08T12:26:19.824Z,17.10
2023-02-08T12:29:09.870Z,13.85
2023-02-08T12:31:53.994Z,14.00
2023-02-08T12:34:28.913Z,17.33
2023-02-08T12:37:33.294Z,16.08
2023-02-08T12:40:29.795Z,10.70
2023-02-08T12:43:07.813Z,11.10
2023-02-08T12:46:18.155Z,15.15
2023-02-08T12:49:13.941Z,10.80
2023-02-08T12:51:51.326Z,16.92
2023-02-08T12:54:32.126Z,18.85
2023-02-08T12:57:02.915Z,8.90
2023-02-08T12:59:36.521Z,8.77
2023-02-08T13:02:13.174Z,16.10
2023-02-08T13:04:46.191Z,9.32
2023-02-08T13:07:19.423Z,9.25
2023-02-08T13:09:55.091Z,11.82
2023-02-08T13:12:28.086Z,9.32
2023-02-08T13:15:01.961Z,9.80
2023-02-08T13:17:42.792Z,8.80
2023-02-08T13:20:32.483Z,11.07
2023-02-08T13:23:05.000Z,9.38
2023-02-08T13:25:37.901Z,9.75
2023-02-08T13:28:09.711Z,10.43
2023-02-08T13:30:40.497Z,12.70
2023-02-08T13:33:17.894Z,7.05
2023-02-08T13:35:51.956Z,8.65
2023-02-08T13:38:29.676Z,7.03
2023-02-08T13:41:17.706Z,7.30
2023-02-08T13:43:51.938Z,6.35
2023-02-08T13:46:21.743Z,6.30
2023-02-08T13:48:52.894Z,9.68
2023-02-08T13:51:55.051Z,11.05
2023-02-08T13:54:23.531Z,7.70
2023-02-08T13:56:54.229Z,8.00
2023-02-08T13:59:41.450Z,8.95
2023-02-08T14:02:28.323Z,8.27
2023-02-08T14:05:18.347Z,10.65
2023-02-08T14:07:48.898Z,8.02
2023-02-08T14:10:27.831Z,7.53
2023-02-08T14:13:02.810Z,8.52
2023-02-08T14:15:38.102Z,11.25
2023-02-08T14:18:20.920Z,7.57
2023-02-08T14:21:07.961Z,7.97
2023-02-08T14:23:40.665Z,6.97
2023-02-08T14:26:20.769Z,7.75
2023-02-08T14:28:56.921Z,8.38
2023-02-08T14:31:38.495Z,7.93
2023-02-08T14:34:07.094Z,6.05
2023-02-08T14:36:37.127Z,7.00
2023-02-08T14:39:23.648Z,5.20
2023-02-08T14:42:03.313Z,5.80
2023-02-08T14:44:57.164Z,10.40
2023-02-08T14:48:05.375Z,5.95
2023-02-08T14:50:51.898Z,8.50
2023-02-08T14:53:26.510Z,8.13
2023-02-08T14:56:00.313Z,4.65
2023-02-08T14:58:31.657Z,6.65
2023-02-08T15:01:06.109Z,4.65
2023-02-08T15:03:36.249Z,4.72
2023-02-08T15:06:34.258Z,5.78
2023-02-08T15:09:03.188Z,9.40
2023-02-08T15:11:34.254Z,5.75
2023-02-08T15:14:06.097Z,6.00
2023-02-08T15:16:41.397Z,8.88
2023-02-08T15:19:10.815Z,5.15
2023-02-08T15:21:41.128Z,6.30
2023-02-08T15:24:16.583Z,8.32
2023-02-08T15:26:49.626Z,7.18
2023-02-08T15:29:26.114Z,8.00
2023-02-08T15:31:59.902Z,7.47
2023-02-08T15:34:28.408Z,10.45
2023-02-08T15:36:58.045Z,7.95
2023-02-08T15:39:34.034Z,8.55
2023-02-08T15:42:03.016Z,11.48
2023-02-08T15:44:33.292Z,8.83
2023-02-08T15:47:05.629Z,12.27
2023-02-08T15:49:38.609Z,7.80
2023-02-08T15:52:07.730Z,9.65
2023-02-08T15:54:36.037Z,9.20
2023-02-08T15:57:07.614Z,12.15
2023-02-08T15:59:40.578Z,12.30
2023-02-08T16:02:24.336Z,12.87
2023-02-08T16:04:52.711Z,6.60
2023-02-08T16:07:27.089Z,12.35
2023-02-08T16:09:57.313Z,9.70
2023-02-08T16:12:27.932Z,12.27
2023-02-08T16:14:57.418Z,8.10
2023-02-08T16:17:45.658Z,11.40
2023-02-08T16:20:28.683Z,7.97
2023-02-08T16:23:00.326Z,9.30
2023-02-08T16:25:38.944Z,6.97
2023-02-08T16:28:07.376Z,8.67
2023-02-08T16:30:35.774Z,14.97
2023-02-08T16:33:14.468Z,9.83
2023-02-08T16:35:42.850Z,11.73
2023-02-08T16:38:11.771Z,11.57
2023-02-08T16:40:49.026Z,11.73
2023-02-08T16:43:25.168Z,19.33
2023-02-08T16:46:19.969Z,7.90
2023-02-08T16:48:52.585Z,12.90
2023-02-08T16:51:23.386Z,9.50
2023-02-08T16:53:55.113Z,9.27
2023-02-08T16:56:23.991Z,12.43
2023-02-08T16:58:52.173Z,7.90
2023-02-08T17:01:23.262Z,6.57
2023-02-08T17:03:53.494Z,11.13
2023-02-08T17:06:28.945Z,8.77
2023-02-08T17:08:57.216Z,7.83
2023-02-08T17:11:25.655Z,10.47
2023-02-08T17:13:53.810Z,9.50
2023-02-08T17:16:25.708Z,8.87
2023-02-08T17:18:55.386Z,8.40
2023-02-08T17:21:23.685Z,8.33
2023-02-08T17:23:52.241Z,7.80
2023-02-08T17:26:27.504Z,8.60
2023-02-08T17:28:56.010Z,10.27
2023-02-08T17:31:25.015Z,8.40
2023-02-08T17:33:55.690Z,5.87
2023-02-08T17:36:23.963Z,6.10
2023-02-08T17:38:52.342Z,5.97
2023-02-08T17:41:22.435Z,9.07
2023-02-08T17:43:52.201Z,5.90
2023-02-08T17:46:22.511Z,7.47
2023-02-08T17:48:50.973Z,6.93
2023-02-08T17:51:21.813Z,9.53
2023-02-08T17:53:50.057Z,7.33
2023-02-08T17:56:22.132Z,12.40
2023-02-08T17:58:53.678Z,10.63
2023-02-08T18:01:24.809Z,9.93
2023-02-08T18:03:54.030Z,8.47
2023-02-08T18:06:24.922Z,6.23
2023-02-08T18:08:53.588Z,6.93
2023-02-08T18:11:23.540Z,6.70
2023-02-08T18:13:54.085Z,10.50
2023-02-08T18:16:25.335Z,10.30
2023-02-08T18:18:56.966Z,10.13
2023-02-08T18:21:26.972Z,8.80
2023-02-08T18:23:56.240Z,10.67
2023-02-08T18:26:25.927Z,8.40
2023-02-08T18:28:54.319Z,11.70
2023-02-08T18:31:23.070Z,12.63
2023-02-08T18:33:51.737Z,9.47
2023-02-08T18:36:20.838Z,11.27
2023-02-08T18:38:52.813Z,10.60
2023-02-08T18:41:24.033Z,16.13
2023-02-08T18:43:53.385Z,7.33
2023-02-08T18:46:23.610Z,11.00
2023-02-08T18:48:53.882Z,8.93
2023-02-08T18:51:23.323Z,14.43
2023-02-08T18:53:55.021Z,7.03
2023-02-08T18:56:25.242Z,7.67
2023-02-08T18:58:54.703Z,10.10
2023-02-08T19:01:24.678Z,8.53
2023-02-08T19:03:53.509Z,12.57
2023-02-08T19:06:24.901Z,9.57
2023-02-08T19:08:56.898Z,7.77
2023-02-08T19:11:26.618Z,9.23
2023-02-08T19:13:58.168Z,10.20
2023-02-08T19:16:27.801Z,6.90
2023-02-08T19:18:57.558Z,16.20
2023-02-08T19:21:26.061Z,7.80
2023-02-08T19:23:58.171Z,14.53
2023-02-08T19:26:29.243Z,9.63
2023-02-08T19:28:59.464Z,9.77
2023-02-08T19:31:29.162Z,7.80
2023-02-08T19:34:00.135Z,11.03
2023-02-08T19:36:30.221Z,8.40
2023-02-08T19:39:00.413Z,10.47
2023-02-08T19:41:31.148Z,7.27
2023-02-08T19:43:59.908Z,8.30
2023-02-08T19:46:28.505Z,14.53
2023-02-08T19:49:00.236Z,7.83
2023-02-08T19:51:29.348Z,9.73
2023-02-08T19:54:01.172Z,6.80
2023-02-08T19:56:31.346Z,11.93
2023-02-08T19:58:59.593Z,8.43
2023-02-08T20:01:28.081Z,11.57
2023-02-08T20:03:56.353Z,10.90
2023-02-08T20:06:26.513Z,10.97
2023-02-08T20:08:55.400Z,13.80
2023-02-08T20:11:26.572Z,20.13
2023-02-08T20:13:55.955Z,10.67
2023-02-08T20:16:24.514Z,19.77
2023-02-08T20:18:52.905Z,12.77
2023-02-08T20:21:22.189Z,12.30
2023-02-08T20:23:51.117Z,15.43
2023-02-08T20:26:21.636Z,11.00
2023-02-08T20:28:54.006Z,14.30
2023-02-08T20:31:24.205Z,17.30
2023-02-08T20:33:53.212Z,12.03
2023-02-08T20:36:23.586Z,11.60
2023-02-08T20:38:53.885Z,29.90
2023-02-08T20:41:23.440Z,12.20
2023-02-08T20:43:54.022Z,11.97
2023-02-08T20:46:24.756Z,10.80
2023-02-08T20:48:53.992Z,11.90
2023-02-08T20:51:23.806Z,11.13
2023-02-08T20:53:53.271Z,14.17
2023-02-08T20:56:23.650Z,11.43
2023-02-08T20:58:54.023Z,16.23
2023-02-08T21:01:24.675Z,12.57
2023-02-08T21:03:55.071Z,16.17
2023-02-08T21:06:26.531Z,13.10
2023-02-08T21:08:55.753Z,11.50
2023-02-08T21:11:26.265Z,15.17
2023-02-08T21:13:56.381Z,15.17
2023-02-08T21:16:25.635Z,13.60
2023-02-08T21:18:54.345Z,15.83
2023-02-08T21:21:22.649Z,19.00
2023-02-08T21:23:50.872Z,13.23
2023-02-08T21:26:21.142Z,12.37
2023-02-08T21:28:49.603Z,12.10
2023-02-08T21:31:22.169Z,10.50
2023-02-08T21:33:51.346Z,12.97
2023-02-08T21:36:21.852Z,14.10
2023-02-08T21:38:50.308Z,14.77
2023-02-08T21:41:20.450Z,12.73
2023-02-08T21:43:49.246Z,15.23
2023-02-08T21:46:19.462Z,11.13
2023-02-08T21:49:04.638Z,12.10
2023-02-08T21:51:51.125Z,10.83
2023-02-08T21:54:39.706Z,11.57
2023-02-08T21:57:10.047Z,11.07
2023-02-08T21:59:38.818Z,9.23
2023-02-08T22:02:12.020Z,9.50
2023-02-08T22:04:42.040Z,13.80
2023-02-08T22:07:10.255Z,11.20
2023-02-08T22:09:39.954Z,15.53
2023-02-08T22:12:08.257Z,16.67
2023-02-08T22:14:36.585Z,9.87
2023-02-08T22:17:04.859Z,17.07
2023-02-08T22:19:34.541Z,13.17
2023-02-08T22:22:02.845Z,11.20
2023-02-08T22:24:31.043Z,11.30
2023-02-08T22:26:59.212Z,11.43
2023-02-08T22:29:27.550Z,11.97
2023-02-08T22:31:55.839Z,13.00
2023-02-08T22:34:26.156Z,9.77
2023-02-08T22:36:55.929Z,12.10
2023-02-08T22:39:24.388Z,14.20
2023-02-08T22:41:52.524Z,25.30
2023-02-08T22:44:20.707Z,18.87
2023-02-08T22:46:48.923Z,9.87
2023-02-08T22:49:17.372Z,11.73
2023-02-08T22:51:45.629Z,12.90
2023-02-08T22:54:15.338Z,13.90
2023-02-08T22:56:43.648Z,12.40
2023-02-08T22:59:12.010Z,10.30
2023-02-08T23:01:40.917Z,11.53
2023-02-08T23:04:09.208Z,12.10
2023-02-08T23:06:37.466Z,20.73
2023-02-08T23:09:07.058Z,11.03
2023-02-08T23:11:36.821Z,11.77
2023-02-08T23:14:05.094Z,15.60
2023-02-08T23:16:33.772Z,13.13
2023-02-08T23:19:02.035Z,16.93
2023-02-08T23:21:30.285Z,12.63
2023-02-08T23:23:58.900Z,13.73
2023-02-08T23:26:27.151Z,15.50
2023-02-08T23:28:56.789Z,16.00
2023-02-08T23:31:25.075Z,10.93
2023-02-08T23:33:53.551Z,10.43
2023-02-08T23:36:23.797Z,12.33
2023-02-08T23:38:52.214Z,12.20
2023-02-08T23:41:23.017Z,14.53
2023-02-08T23:43:51.958Z,12.90
2023-02-08T23:46:23.804Z,12.33
2023-02-08T23:48:52.330Z,11.97
2023-02-08T23:51:22.261Z,11.83
2023-02-08T23:53:51.251Z,12.17
2023-02-08T23:56:22.122Z,8.83
2023-02-08T23:58:53.105Z,10.13
